EGPF/GLA METAR and TAF weather

Enter ICAO airport designator
Station Type Date Time Source
EGPF METAR 2022/06/28 09:20 UTC NOAA

EGPF 280920Z AUTO 11010KT 9999 -RA FEW021 BKN025 BKN029 13/12 Q1008


Station Type Date Time Source
EGPF Decoded METAR 2022/06/28 09:20 UTC NOAA

Glasgow Airport, United Kingdom (EGPF) 55-52N 004-26W 0M
Jun 28, 2022 - 05:20 AM EDT / 2022.06.28 0920 UTC
Wind: from the ESE (110 degrees) at 12 MPH (10 KT):0
Visibility: greater than 7 mile(s):0
Sky conditions: mostly cloudy
Weather: light rain
Temperature: 55 F (13 C)
Dew Point: 53 F (12 C)
Relative Humidity: 93%
Pressure (altimeter): 29.77 in. Hg (1008 hPa)
ob: EGPF 280920Z AUTO 11010KT 9999 -RA FEW021 BKN025 BKN029 13/12 Q1008
cycle: 9

Station Type Date Time Source
EGPF TAF 2022/06/28 06:09 UTC NOAA

TAF EGPF 280457Z 2806/2906 16010KT 9999 SCT020 BKN035
TEMPO 2806/2816 7000 RA -RADZ BKN014 PROB40
TEMPO 2806/2812 16015G25KT PROB30
TEMPO 2806/2815 4000 RADZ BKN009 PROB40
TEMPO 2812/2821 16015G28KT PROB30
TEMPO 2816/2906 7000 SHRA
BECMG 2902/2905 VRB03KT

Example: see airport list